createdAt,value
2022-09-12T00:03:07.669Z,21.625
2022-09-12T00:06:54.361Z,21.625
2022-09-12T00:10:34.456Z,21.625
2022-09-12T00:14:19.281Z,21.625
2022-09-12T00:17:59.771Z,21.625
2022-09-12T00:21:40.269Z,21.625
2022-09-12T00:25:20.443Z,21.625
2022-09-12T00:29:01.123Z,21.625
2022-09-12T00:32:41.551Z,21.625
2022-09-12T00:36:21.366Z,21.562
2022-09-12T00:40:01.740Z,21.562
2022-09-12T00:43:41.994Z,21.562
2022-09-12T00:47:22.304Z,21.562
2022-09-12T00:51:02.407Z,21.562
2022-09-12T00:54:42.562Z,21.562
2022-09-12T00:58:22.753Z,21.562
2022-09-12T01:03:13.163Z,21.562
2022-09-12T01:06:52.872Z,21.562
2022-09-12T01:10:34.996Z,21.562
2022-09-12T01:14:15.196Z,21.562
2022-09-12T01:17:55.446Z,21.562
2022-09-12T01:21:35.900Z,21.5
2022-09-12T01:25:15.871Z,21.5
2022-09-12T01:28:56.435Z,21.5
2022-09-12T01:32:37.000Z,21.5
2022-09-12T01:36:17.230Z,21.5
2022-09-12T01:39:57.858Z,21.5
2022-09-12T01:43:38.073Z,21.5
2022-09-12T01:47:18.630Z,21.5
2022-09-12T01:50:58.666Z,21.5
2022-09-12T01:54:38.634Z,21.5
2022-09-12T01:58:18.435Z,21.437
2022-09-12T02:03:06.541Z,21.437
2022-09-12T02:06:46.969Z,21.437
2022-09-12T02:10:32.247Z,21.437
2022-09-12T02:14:12.747Z,21.437
2022-09-12T02:17:53.116Z,21.437
2022-09-12T02:21:44.536Z,21.437
2022-09-12T02:25:24.440Z,21.437
2022-09-12T02:29:04.721Z,21.375
2022-09-12T02:32:44.779Z,21.375
2022-09-12T02:36:25.015Z,21.375
2022-09-12T02:40:11.378Z,21.375
2022-09-12T02:43:51.918Z,21.375
2022-09-12T02:47:32.159Z,21.375
2022-09-12T02:51:13.543Z,21.375
2022-09-12T02:54:58.396Z,21.375
2022-09-12T02:58:38.395Z,21.375
2022-09-12T03:03:07.392Z,21.375
2022-09-12T03:06:47.394Z,21.375
2022-09-12T03:10:27.538Z,21.312
2022-09-12T03:14:07.793Z,21.312
2022-09-12T03:17:48.363Z,21.312
2022-09-12T03:21:28.906Z,21.312
2022-09-12T03:25:08.946Z,21.312
2022-09-12T03:28:48.975Z,21.312
2022-09-12T03:32:29.754Z,21.312
2022-09-12T03:36:11.937Z,21.312
2022-09-12T03:39:52.097Z,21.25
2022-09-12T03:43:37.535Z,21.25
2022-09-12T03:47:18.288Z,21.25
2022-09-12T03:50:58.347Z,21.25
2022-09-12T03:54:41.821Z,21.25
2022-09-12T03:58:21.798Z,21.25
2022-09-12T04:03:12.900Z,21.25
2022-09-12T04:08:37.904Z,21.25
2022-09-12T04:12:19.110Z,21.187
2022-09-12T04:16:00.039Z,21.187
2022-09-12T04:19:46.841Z,21.187
2022-09-12T04:23:27.985Z,21.187
2022-09-12T04:27:08.701Z,21.187
2022-09-12T04:30:49.584Z,21.187
2022-09-12T04:34:36.931Z,21.187
2022-09-12T04:38:17.679Z,21.187
2022-09-12T04:41:58.308Z,21.187
2022-09-12T04:45:44.362Z,21.187
2022-09-12T04:49:29.059Z,21.125
2022-09-12T04:53:10.039Z,21.125
2022-09-12T04:56:50.450Z,21.125
2022-09-12T05:03:08.528Z,21.125
2022-09-12T05:06:49.741Z,21.125
2022-09-12T05:10:31.185Z,21.125
2022-09-12T05:14:49.332Z,21.125
2022-09-12T05:18:35.390Z,21.125
2022-09-12T05:22:16.147Z,21.125
2022-09-12T05:25:56.486Z,21.125
2022-09-12T05:29:42.252Z,21.125
2022-09-12T05:33:24.978Z,21.062
2022-09-12T05:37:06.238Z,21.125
2022-09-12T05:40:47.208Z,21.125
2022-09-12T05:44:27.598Z,21.125
2022-09-12T05:48:09.108Z,21.062
2022-09-12T05:51:51.370Z,21.062
2022-09-12T05:55:32.436Z,21.125
2022-09-12T05:59:13.350Z,21.062
2022-09-12T06:03:12.624Z,21.062
2022-09-12T06:06:53.095Z,21.062
2022-09-12T06:10:34.346Z,21.062
2022-09-12T06:14:14.968Z,21.062
2022-09-12T06:17:56.050Z,21.062
2022-09-12T06:21:37.250Z,21.062
2022-09-12T06:25:24.137Z,21.062
2022-09-12T06:29:05.265Z,21.062
2022-09-12T06:32:52.213Z,21.062
2022-09-12T06:36:38.798Z,21.062
2022-09-12T06:40:19.594Z,21.062
2022-09-12T06:44:00.624Z,21.062
2022-09-12T06:47:42.397Z,21.062
2022-09-12T06:51:27.934Z,21.062
2022-09-12T06:55:08.533Z,21.062
2022-09-12T06:58:57.453Z,21.062
2022-09-12T07:03:07.437Z,21.062
2022-09-12T07:06:48.415Z,21.062
2022-09-12T07:10:29.132Z,21.062
2022-09-12T07:14:10.381Z,21.125
2022-09-12T07:17:55.211Z,21.125
2022-09-12T07:21:35.869Z,21.125
2022-09-12T07:25:17.292Z,21.125
2022-09-12T07:29:08.256Z,21.125
2022-09-12T07:33:12.868Z,21.187
2022-09-12T07:36:53.941Z,21.187
2022-09-12T07:40:38.622Z,21.187
2022-09-12T07:44:20.100Z,21.187
2022-09-12T07:48:01.426Z,21.25
2022-09-12T07:51:42.335Z,21.25
2022-09-12T07:55:23.115Z,21.25
2022-09-12T07:59:11.635Z,21.187
2022-09-12T08:03:08.274Z,21.25
2022-09-12T08:06:49.096Z,21.25
2022-09-12T08:10:35.044Z,21.25
2022-09-12T08:14:21.385Z,21.187
2022-09-12T08:18:02.906Z,21.25
2022-09-12T08:21:43.779Z,21.25
2022-09-12T08:25:24.751Z,21.25
2022-09-12T08:29:05.436Z,21.312
2022-09-12T08:32:46.826Z,21.312
2022-09-12T08:36:28.060Z,21.312
2022-09-12T08:40:09.464Z,21.312
2022-09-12T08:43:54.549Z,21.312
2022-09-12T08:47:38.058Z,21.312
2022-09-12T08:51:22.002Z,21.375
2022-09-12T08:55:03.023Z,21.375
2022-09-12T08:58:44.257Z,21.375
2022-09-12T09:03:08.834Z,21.375
2022-09-12T09:06:55.289Z,21.437
2022-09-12T09:10:36.101Z,21.437
2022-09-12T09:14:17.055Z,21.437
2022-09-12T09:17:58.253Z,21.5
2022-09-12T09:21:42.963Z,21.5
2022-09-12T09:25:26.425Z,21.562
2022-09-12T09:29:31.038Z,21.625
2022-09-12T09:33:12.325Z,21.625
2022-09-12T09:37:00.072Z,21.687
2022-09-12T09:40:48.008Z,21.687
2022-09-12T09:44:29.567Z,21.687
2022-09-12T09:48:15.188Z,21.75
2022-09-12T09:51:58.867Z,21.812
2022-09-12T09:55:41.042Z,21.812
2022-09-12T09:59:22.466Z,21.875
2022-09-12T10:03:13.912Z,21.937
2022-09-12T10:06:55.519Z,22.0
2022-09-12T10:10:36.524Z,22.0
2022-09-12T10:14:23.673Z,22.062
2022-09-12T10:18:11.464Z,22.062
2022-09-12T10:22:13.699Z,22.125
2022-09-12T10:25:54.869Z,22.187
2022-09-12T10:29:40.047Z,22.187
2022-09-12T10:33:21.819Z,22.25
2022-09-12T10:37:02.914Z,22.25
2022-09-12T10:40:48.218Z,22.25
2022-09-12T10:44:29.647Z,22.187
2022-09-12T10:48:10.902Z,22.187
2022-09-12T10:52:03.326Z,22.187
2022-09-12T10:55:44.648Z,22.187
2022-09-12T10:59:26.136Z,22.187
2022-09-12T11:03:09.100Z,22.187
2022-09-12T11:06:55.742Z,22.187
2022-09-12T11:10:39.560Z,22.187
2022-09-12T11:14:22.685Z,22.125
2022-09-12T11:18:06.974Z,22.125
2022-09-12T11:21:47.857Z,22.125
2022-09-12T11:25:28.712Z,22.125
2022-09-12T11:29:13.582Z,22.125
2022-09-12T11:32:55.118Z,22.187
2022-09-12T11:36:46.797Z,22.187
2022-09-12T11:40:33.914Z,22.25
2022-09-12T11:44:15.097Z,22.25
2022-09-12T11:47:56.880Z,22.25
2022-09-12T11:51:38.216Z,22.312
2022-09-12T11:55:25.356Z,22.312
2022-09-12T11:59:07.431Z,22.25
2022-09-12T12:03:15.039Z,22.312
2022-09-12T12:06:57.153Z,22.312
2022-09-12T12:10:41.022Z,22.312
2022-09-12T12:14:22.180Z,22.312
2022-09-12T12:18:03.743Z,22.375
2022-09-12T12:21:55.466Z,22.375
2022-09-12T12:25:42.350Z,22.437
2022-09-12T12:29:24.376Z,22.437
2022-09-12T12:33:10.667Z,22.437
2022-09-12T12:36:51.886Z,22.375
2022-09-12T12:40:38.250Z,22.437
2022-09-12T12:44:20.158Z,22.437
2022-09-12T12:48:05.079Z,22.437
2022-09-12T12:51:49.513Z,22.437
2022-09-12T12:55:36.949Z,22.437
2022-09-12T12:59:18.682Z,22.437
2022-09-12T13:03:09.284Z,22.5
2022-09-12T13:06:50.968Z,22.562
2022-09-12T13:10:38.179Z,22.625
2022-09-12T13:14:24.216Z,22.625
2022-09-12T13:18:05.919Z,22.625
2022-09-12T13:22:18.930Z,22.687
2022-09-12T13:26:00.391Z,22.75
2022-09-12T13:29:42.392Z,22.75
2022-09-12T13:33:28.424Z,22.75
2022-09-12T13:37:09.949Z,22.75
2022-09-12T13:40:51.722Z,22.75
2022-09-12T13:44:33.297Z,22.812
2022-09-12T13:48:19.647Z,22.812
2022-09-12T13:52:00.910Z,22.812
2022-09-12T13:55:48.130Z,22.812
2022-09-12T13:59:29.555Z,22.812
2022-09-12T14:03:09.275Z,22.812
2022-09-12T14:06:54.093Z,22.812
2022-09-12T14:10:35.915Z,22.812
2022-09-12T14:14:17.374Z,22.812
2022-09-12T14:18:07.276Z,22.812
2022-09-12T14:21:48.893Z,22.812
2022-09-12T14:25:34.981Z,22.812
2022-09-12T14:29:16.574Z,22.812
2022-09-12T14:32:59.415Z,22.812
2022-09-12T14:36:40.938Z,22.812
2022-09-12T14:40:23.758Z,22.75
2022-09-12T14:44:05.458Z,22.812
2022-09-12T14:47:47.500Z,22.75
2022-09-12T14:51:34.873Z,22.75
2022-09-12T14:55:21.654Z,22.75
2022-09-12T14:59:02.494Z,22.687
2022-09-12T15:03:08.022Z,22.687
2022-09-12T15:06:50.567Z,22.687
2022-09-12T15:10:36.515Z,22.687
2022-09-12T15:14:17.900Z,22.687
2022-09-12T15:18:03.419Z,22.687
2022-09-12T15:21:47.863Z,22.75
2022-09-12T15:25:30.049Z,22.812
2022-09-12T15:29:11.844Z,22.875
2022-09-12T15:32:54.322Z,22.875
2022-09-12T15:36:36.072Z,22.937
2022-09-12T15:40:19.773Z,22.875
2022-09-12T15:44:01.909Z,22.875
2022-09-12T15:47:47.644Z,22.875
2022-09-12T15:51:34.064Z,22.875
2022-09-12T15:55:16.511Z,22.812
2022-09-12T15:59:18.226Z,22.812
2022-09-12T16:03:09.437Z,22.812
2022-09-12T16:08:36.991Z,22.812
2022-09-12T16:12:19.108Z,22.75
2022-09-12T16:16:00.244Z,22.75
2022-09-12T16:19:41.764Z,22.75
2022-09-12T16:23:22.829Z,22.687
2022-09-12T16:27:05.367Z,22.687
2022-09-12T16:30:46.708Z,22.687
2022-09-12T16:34:28.488Z,22.687
2022-09-12T16:38:09.371Z,22.625
2022-09-12T16:41:50.961Z,22.625
2022-09-12T16:45:37.973Z,22.562
2022-09-12T16:49:24.637Z,22.562
2022-09-12T16:53:05.693Z,22.562
2022-09-12T16:56:46.589Z,22.562
2022-09-12T17:03:07.868Z,22.5
2022-09-12T17:06:52.951Z,22.437
2022-09-12T17:10:36.881Z,22.437
2022-09-12T17:14:49.121Z,22.437
2022-09-12T17:18:37.138Z,22.375
2022-09-12T17:22:18.473Z,22.375
2022-09-12T17:26:04.807Z,22.375
2022-09-12T17:29:46.085Z,22.312
2022-09-12T17:33:27.576Z,22.312
2022-09-12T17:37:08.872Z,22.312
2022-09-12T17:41:31.786Z,22.312
2022-09-12T17:45:17.811Z,22.25
2022-09-12T17:49:00.447Z,22.25
2022-09-12T17:53:17.126Z,22.25
2022-09-12T17:56:58.207Z,22.25
2022-09-12T18:03:11.374Z,22.25
2022-09-12T18:06:52.497Z,22.187
2022-09-12T18:10:38.654Z,22.187
2022-09-12T18:14:20.888Z,22.187
2022-09-12T18:18:03.345Z,22.187
2022-09-12T18:21:45.946Z,22.187
2022-09-12T18:25:27.599Z,22.187
2022-09-12T18:29:08.860Z,22.187
2022-09-12T18:33:15.735Z,22.187
2022-09-12T18:37:00.077Z,22.187
2022-09-12T18:40:42.007Z,22.125
2022-09-12T18:44:22.867Z,22.187
2022-09-12T18:48:04.601Z,22.125
2022-09-12T18:51:45.445Z,22.125
2022-09-12T18:55:32.607Z,22.125
2022-09-12T18:59:14.196Z,22.125
2022-09-12T19:03:08.554Z,22.125
2022-09-12T19:06:50.584Z,22.125
2022-09-12T19:10:37.239Z,22.125
2022-09-12T19:14:18.165Z,22.062
2022-09-12T19:17:59.304Z,22.062
2022-09-12T19:21:40.560Z,22.062
2022-09-12T19:25:21.631Z,22.062
2022-09-12T19:29:02.989Z,22.062
2022-09-12T19:32:44.511Z,22.062
2022-09-12T19:36:45.918Z,22.062
2022-09-12T19:40:28.194Z,22.062
2022-09-12T19:44:10.593Z,22.062
2022-09-12T19:47:52.502Z,22.062
2022-09-12T19:51:33.917Z,22.062
2022-09-12T19:55:15.154Z,22.062
2022-09-12T19:58:56.913Z,22.062
2022-09-12T20:03:08.429Z,22.062
2022-09-12T20:06:49.339Z,22.062
2022-09-12T20:10:30.725Z,22.062
2022-09-12T20:14:11.544Z,22.062
2022-09-12T20:17:57.983Z,22.062
2022-09-12T20:21:39.188Z,22.0
2022-09-12T20:25:24.003Z,22.0
2022-09-12T20:29:05.404Z,22.0
2022-09-12T20:32:47.312Z,22.0
2022-09-12T20:36:33.523Z,22.0
2022-09-12T20:40:17.555Z,22.0
2022-09-12T20:43:58.807Z,22.0
2022-09-12T20:47:45.566Z,22.0
2022-09-12T20:51:27.110Z,22.0
2022-09-12T20:55:14.964Z,22.0
2022-09-12T20:58:56.025Z,22.0
2022-09-12T21:03:09.765Z,22.0
2022-09-12T21:06:55.632Z,22.0
2022-09-12T21:10:37.377Z,22.0
2022-09-12T21:14:18.387Z,22.0
2022-09-12T21:17:59.917Z,22.0
2022-09-12T21:21:46.171Z,22.0
2022-09-12T21:25:27.282Z,22.0
2022-09-12T21:29:08.226Z,22.0
2022-09-12T21:32:55.332Z,22.0
2022-09-12T21:36:36.808Z,21.937
2022-09-12T21:40:18.203Z,22.0
2022-09-12T21:44:01.976Z,21.937
2022-09-12T21:47:43.783Z,21.937
2022-09-12T21:51:24.662Z,21.937
2022-09-12T21:55:05.977Z,21.937
2022-09-12T21:58:46.712Z,21.937
2022-09-12T22:03:08.021Z,21.937
2022-09-12T22:06:54.355Z,21.937
2022-09-12T22:10:35.562Z,21.937
2022-09-12T22:14:21.766Z,21.937
2022-09-12T22:18:33.903Z,21.937
2022-09-12T22:22:14.684Z,21.875
2022-09-12T22:26:01.552Z,21.937
2022-09-12T22:29:41.745Z,21.937
2022-09-12T22:33:22.804Z,21.937
2022-09-12T22:37:11.148Z,21.875
2022-09-12T22:40:51.888Z,21.937
2022-09-12T22:44:33.132Z,21.937
2022-09-12T22:48:14.252Z,21.937
2022-09-12T22:51:55.067Z,21.875
2022-09-12T22:55:35.842Z,21.937
2022-09-12T22:59:16.543Z,21.937
2022-09-12T23:03:06.871Z,21.937
2022-09-12T23:06:47.437Z,21.937
2022-09-12T23:10:28.265Z,21.937
2022-09-12T23:14:09.248Z,21.875
2022-09-12T23:17:51.020Z,21.875
2022-09-12T23:21:34.869Z,21.875
2022-09-12T23:25:15.895Z,21.875
2022-09-12T23:28:56.430Z,21.875
2022-09-12T23:32:37.604Z,21.875
2022-09-12T23:36:17.598Z,21.875
2022-09-12T23:40:01.032Z,21.875
2022-09-12T23:43:42.052Z,21.875
2022-09-12T23:47:23.176Z,21.875
2022-09-12T23:51:03.750Z,21.875
2022-09-12T23:54:46.731Z,21.875
2022-09-12T23:58:27.302Z,21.875
